createdAt,value
2023-05-09T00:01:28.412Z,8.80
2023-05-09T00:03:54.939Z,8.78
2023-05-09T00:06:21.469Z,8.74
2023-05-09T00:08:47.857Z,8.73
2023-05-09T00:11:14.305Z,8.67
2023-05-09T00:13:40.877Z,8.65
2023-05-09T00:16:07.873Z,8.63
2023-05-09T00:18:35.843Z,8.63
2023-05-09T00:21:02.412Z,8.61
2023-05-09T00:23:28.823Z,8.59
2023-05-09T00:25:55.264Z,8.53
2023-05-09T00:28:21.766Z,8.49
2023-05-09T00:30:48.181Z,8.47
2023-05-09T00:33:14.617Z,8.38
2023-05-09T00:35:42.370Z,8.36
2023-05-09T00:38:08.849Z,8.32
2023-05-09T00:40:35.427Z,8.29
2023-05-09T00:43:01.994Z,8.26
2023-05-09T00:45:28.530Z,8.23
2023-05-09T00:47:55.582Z,8.32
2023-05-09T00:50:22.160Z,8.24
2023-05-09T00:52:50.674Z,8.21
2023-05-09T00:55:17.357Z,8.14
2023-05-09T00:57:44.251Z,8.11
2023-05-09T01:00:12.043Z,8.07
2023-05-09T01:02:39.152Z,8.07
2023-05-09T01:05:06.147Z,8.04
2023-05-09T01:07:40.794Z,8.00
2023-05-09T01:10:15.995Z,7.98
2023-05-09T01:12:49.544Z,7.97
2023-05-09T01:15:22.070Z,7.90
2023-05-09T01:17:55.106Z,7.88
2023-05-09T01:20:29.989Z,7.84
2023-05-09T01:23:19.814Z,7.81
2023-05-09T01:25:57.568Z,7.78
2023-05-09T01:28:36.511Z,7.73
2023-05-09T01:31:05.944Z,7.69
2023-05-09T01:33:36.259Z,7.64
2023-05-09T01:36:06.582Z,7.62
2023-05-09T01:38:34.444Z,7.59
2023-05-09T01:41:02.776Z,7.65
2023-05-09T01:43:30.205Z,7.62
2023-05-09T01:45:59.564Z,7.60
2023-05-09T01:48:30.185Z,7.56
2023-05-09T01:50:58.155Z,7.56
2023-05-09T01:53:27.938Z,7.54
2023-05-09T01:55:56.532Z,7.52
2023-05-09T01:58:25.290Z,7.49
2023-05-09T02:00:52.305Z,7.48
2023-05-09T02:03:20.832Z,7.46
2023-05-09T02:05:50.250Z,7.49
2023-05-09T02:08:18.796Z,7.50
2023-05-09T02:10:47.288Z,7.45
2023-05-09T02:13:13.962Z,7.42
2023-05-09T02:15:40.691Z,7.43
2023-05-09T02:18:07.275Z,7.38
2023-05-09T02:20:33.878Z,7.35
2023-05-09T02:23:01.951Z,7.33
2023-05-09T02:25:28.738Z,7.38
2023-05-09T02:27:57.570Z,7.41
2023-05-09T02:30:26.540Z,7.43
2023-05-09T02:32:59.470Z,7.40
2023-05-09T02:35:27.794Z,7.41
2023-05-09T02:37:55.291Z,7.43
2023-05-09T02:40:24.793Z,7.42
2023-05-09T02:42:51.187Z,7.41
2023-05-09T02:45:17.618Z,7.34
2023-05-09T02:47:44.116Z,7.37
2023-05-09T02:50:11.577Z,7.30
2023-05-09T02:52:38.912Z,7.30
2023-05-09T02:55:06.525Z,7.25
2023-05-09T02:57:37.354Z,7.25
2023-05-09T03:00:05.169Z,7.23
2023-05-09T03:02:31.767Z,7.31
2023-05-09T03:04:58.600Z,7.26
2023-05-09T03:07:25.273Z,7.19
2023-05-09T03:09:51.642Z,7.14
2023-05-09T03:12:18.097Z,7.15
2023-05-09T03:14:45.866Z,7.15
2023-05-09T03:17:12.371Z,7.14
2023-05-09T03:19:38.828Z,7.15
2023-05-09T03:22:05.385Z,7.15
2023-05-09T03:24:35.504Z,7.09
2023-05-09T03:27:02.296Z,7.08
2023-05-09T03:29:28.641Z,7.05
2023-05-09T03:31:56.384Z,7.01
2023-05-09T03:34:22.801Z,6.99
2023-05-09T03:36:49.210Z,6.97
2023-05-09T03:39:15.669Z,6.95
2023-05-09T03:41:45.192Z,6.98
2023-05-09T03:44:12.370Z,6.96
2023-05-09T03:46:38.982Z,6.91
2023-05-09T03:49:06.924Z,6.85
2023-05-09T03:51:34.531Z,6.80
2023-05-09T03:54:02.946Z,6.85
2023-05-09T03:56:29.416Z,6.87
2023-05-09T03:58:55.864Z,6.85
2023-05-09T04:01:22.522Z,6.85
2023-05-09T04:03:49.089Z,6.87
2023-05-09T04:06:17.788Z,6.84
2023-05-09T04:08:44.355Z,6.81
2023-05-09T04:11:10.750Z,6.80
2023-05-09T04:13:39.592Z,6.81
2023-05-09T04:16:17.071Z,6.83
2023-05-09T04:18:43.564Z,6.82
2023-05-09T04:21:09.985Z,6.87
2023-05-09T04:23:38.809Z,6.97
2023-05-09T04:26:05.528Z,6.96
2023-05-09T04:28:31.963Z,6.99
2023-05-09T04:30:58.564Z,7.05
2023-05-09T04:33:25.178Z,7.08
2023-05-09T04:35:52.448Z,7.10
2023-05-09T04:38:18.971Z,7.13
2023-05-09T04:40:46.897Z,7.17
2023-05-09T04:43:13.354Z,7.19
2023-05-09T04:45:40.120Z,7.24
2023-05-09T04:48:06.657Z,7.29
2023-05-09T04:50:33.269Z,7.34
2023-05-09T04:52:59.754Z,7.39
2023-05-09T04:55:26.372Z,7.44
2023-05-09T04:57:56.200Z,7.48
2023-05-09T05:00:22.826Z,7.53
2023-05-09T05:02:49.476Z,7.59
2023-05-09T05:05:15.947Z,7.69
2023-05-09T05:07:43.425Z,7.75
2023-05-09T05:10:12.630Z,7.84
2023-05-09T05:12:43.005Z,7.88
2023-05-09T05:15:13.495Z,7.97
2023-05-09T05:17:42.625Z,8.60
2023-05-09T05:20:09.892Z,10.75
2023-05-09T05:22:40.639Z,13.44
2023-05-09T05:25:08.278Z,15.21
2023-05-09T05:27:35.936Z,16.55
2023-05-09T05:30:02.750Z,18.07
2023-05-09T05:32:30.615Z,18.70
2023-05-09T05:34:57.396Z,19.32
2023-05-09T05:37:24.105Z,19.06
2023-05-09T05:39:50.592Z,18.32
2023-05-09T05:42:17.376Z,19.37
2023-05-09T05:44:44.141Z,19.14
2023-05-09T05:47:11.974Z,18.00
2023-05-09T05:49:40.186Z,18.90
2023-05-09T05:52:06.660Z,18.27
2023-05-09T05:54:34.114Z,18.77
2023-05-09T05:57:00.612Z,19.31
2023-05-09T05:59:27.051Z,19.65
2023-05-09T06:01:53.650Z,19.02
2023-05-09T06:04:20.898Z,18.23
2023-05-09T06:06:48.829Z,18.91
2023-05-09T06:09:15.319Z,18.33
2023-05-09T06:11:41.783Z,18.21
2023-05-09T06:14:08.240Z,17.58
2023-05-09T06:16:34.943Z,17.37
2023-05-09T06:19:01.334Z,17.31
2023-05-09T06:21:27.750Z,16.93
2023-05-09T06:24:05.130Z,17.05
2023-05-09T06:26:34.781Z,16.77
2023-05-09T06:29:01.233Z,16.13
2023-05-09T06:31:27.738Z,16.26
2023-05-09T06:33:54.190Z,16.63
2023-05-09T06:36:20.591Z,16.55
2023-05-09T06:38:49.794Z,16.23
2023-05-09T06:41:17.510Z,15.05
2023-05-09T06:43:43.889Z,15.17
2023-05-09T06:46:10.385Z,15.35
2023-05-09T06:48:36.813Z,14.99
2023-05-09T06:51:03.375Z,15.97
2023-05-09T06:53:29.890Z,16.38
2023-05-09T06:55:56.333Z,16.52
2023-05-09T06:58:24.099Z,15.39
2023-05-09T07:00:50.513Z,15.79
2023-05-09T07:03:16.992Z,15.99
2023-05-09T07:05:43.396Z,16.71
2023-05-09T07:08:09.913Z,16.57
2023-05-09T07:10:36.402Z,16.12
2023-05-09T07:13:02.848Z,16.86
2023-05-09T07:15:40.438Z,17.01
2023-05-09T07:18:08.874Z,16.41
2023-05-09T07:20:35.425Z,15.91
2023-05-09T07:23:03.080Z,16.12
2023-05-09T07:25:29.569Z,16.96
2023-05-09T07:27:56.133Z,16.04
2023-05-09T07:30:22.669Z,16.85
2023-05-09T07:32:50.626Z,17.03
2023-05-09T07:35:17.359Z,16.92
2023-05-09T07:37:43.789Z,16.59
2023-05-09T07:40:10.944Z,17.36
2023-05-09T07:42:37.335Z,17.00
2023-05-09T07:45:04.425Z,17.20
2023-05-09T07:47:30.912Z,17.52
2023-05-09T07:49:58.873Z,17.89
2023-05-09T07:52:25.559Z,18.01
2023-05-09T07:54:51.965Z,17.18
2023-05-09T07:57:18.419Z,17.88
2023-05-09T07:59:44.826Z,18.04
2023-05-09T08:02:12.486Z,18.14
2023-05-09T08:04:39.063Z,18.27
2023-05-09T08:07:06.897Z,18.45
2023-05-09T08:09:33.306Z,18.46
2023-05-09T08:11:59.698Z,18.32
2023-05-09T08:14:26.288Z,18.15
2023-05-09T08:16:52.684Z,18.23
2023-05-09T08:19:19.093Z,18.62
2023-05-09T08:21:45.580Z,18.79
2023-05-09T08:24:13.304Z,19.11
2023-05-09T08:26:39.750Z,19.40
2023-05-09T08:29:06.104Z,19.23
2023-05-09T08:31:32.642Z,19.28
2023-05-09T08:33:59.084Z,19.27
2023-05-09T08:36:25.600Z,19.38
2023-05-09T08:38:52.114Z,19.53
2023-05-09T08:41:25.042Z,19.64
2023-05-09T08:43:52.217Z,19.70
2023-05-09T08:46:27.814Z,19.78
2023-05-09T08:48:54.961Z,19.71
2023-05-09T08:51:21.989Z,19.63
2023-05-09T08:53:48.773Z,19.50
2023-05-09T08:56:15.423Z,19.78
2023-05-09T08:58:43.624Z,19.97
2023-05-09T09:01:12.835Z,19.85
2023-05-09T09:03:39.394Z,19.98
2023-05-09T09:06:08.181Z,20.26
2023-05-09T09:08:35.513Z,20.33
2023-05-09T09:11:02.618Z,20.59
2023-05-09T09:13:30.489Z,20.51
2023-05-09T09:15:59.828Z,20.53
2023-05-09T09:18:31.275Z,20.38
2023-05-09T09:21:02.255Z,20.51
2023-05-09T09:23:30.137Z,20.50
2023-05-09T09:26:01.076Z,20.20
2023-05-09T09:28:27.874Z,20.24
2023-05-09T09:30:54.297Z,20.40
2023-05-09T09:33:23.304Z,20.65
2023-05-09T09:35:53.003Z,20.68
2023-05-09T09:38:20.111Z,20.95
2023-05-09T09:40:53.459Z,20.27
2023-05-09T09:43:19.866Z,20.67
2023-05-09T09:45:49.062Z,20.42
2023-05-09T09:48:15.466Z,20.02
2023-05-09T09:50:43.209Z,20.56
2023-05-09T09:53:09.646Z,20.68
2023-05-09T09:55:36.148Z,20.68
2023-05-09T09:58:02.542Z,20.33
2023-05-09T10:00:29.059Z,20.15
2023-05-09T10:02:57.381Z,20.38
2023-05-09T10:05:25.223Z,20.69
2023-05-09T10:07:56.175Z,20.95
2023-05-09T10:10:22.940Z,21.06
2023-05-09T10:12:51.150Z,21.29
2023-05-09T10:15:17.801Z,21.40
2023-05-09T10:17:44.259Z,21.68
2023-05-09T10:20:13.486Z,21.37
2023-05-09T10:22:40.743Z,21.81
2023-05-09T10:25:15.092Z,21.66
2023-05-09T10:27:45.654Z,21.43
2023-05-09T10:30:17.012Z,21.51
2023-05-09T10:32:48.464Z,21.70
2023-05-09T10:35:17.805Z,21.48
2023-05-09T10:37:45.390Z,22.04
2023-05-09T10:40:13.461Z,21.90
2023-05-09T10:42:39.964Z,21.59
2023-05-09T10:45:08.486Z,21.97
2023-05-09T10:47:35.697Z,21.95
2023-05-09T10:50:02.589Z,22.24
2023-05-09T10:52:31.779Z,22.24
2023-05-09T10:54:58.801Z,21.99
2023-05-09T10:57:28.556Z,22.37
2023-05-09T10:59:55.273Z,22.39
2023-05-09T11:02:22.143Z,22.49
2023-05-09T11:04:48.542Z,22.43
2023-05-09T11:07:25.618Z,22.13
2023-05-09T11:09:52.565Z,22.08
2023-05-09T11:12:20.141Z,21.58
2023-05-09T11:14:49.325Z,21.89
2023-05-09T11:17:29.556Z,22.22
2023-05-09T11:20:05.088Z,22.45
2023-05-09T11:22:38.814Z,22.55
2023-05-09T11:25:07.688Z,22.40
2023-05-09T11:27:40.004Z,22.54
2023-05-09T11:30:09.623Z,22.55
2023-05-09T11:32:41.920Z,22.83
2023-05-09T11:35:10.484Z,22.76
2023-05-09T11:37:44.727Z,23.09
2023-05-09T11:40:12.529Z,23.27
2023-05-09T11:42:42.444Z,22.55
2023-05-09T11:45:11.576Z,22.53
2023-05-09T11:47:38.574Z,22.90
2023-05-09T11:50:06.689Z,22.87
2023-05-09T11:52:33.470Z,22.94
2023-05-09T11:55:00.267Z,22.98
2023-05-09T11:57:26.884Z,22.62
2023-05-09T11:59:53.476Z,22.70
2023-05-09T12:02:21.549Z,22.96
2023-05-09T12:04:48.199Z,23.05
2023-05-09T12:07:14.954Z,22.92
2023-05-09T12:09:41.402Z,22.82
2023-05-09T12:12:12.118Z,23.09
2023-05-09T12:14:39.486Z,23.24
2023-05-09T12:17:06.647Z,23.01
2023-05-09T12:19:34.577Z,23.26
2023-05-09T12:22:03.495Z,23.27
2023-05-09T12:24:30.694Z,23.40
2023-05-09T12:26:59.585Z,23.52
2023-05-09T12:29:27.008Z,22.98
2023-05-09T12:31:54.265Z,22.81
2023-05-09T12:34:21.320Z,22.63
2023-05-09T12:36:49.156Z,22.75
2023-05-09T12:39:15.927Z,23.00
2023-05-09T12:42:01.002Z,23.25
2023-05-09T12:44:29.025Z,22.92
2023-05-09T12:46:57.358Z,22.74
2023-05-09T12:49:25.053Z,22.80
2023-05-09T12:51:54.483Z,22.88
2023-05-09T12:54:21.380Z,23.00
2023-05-09T12:56:47.992Z,22.95
2023-05-09T12:59:20.815Z,23.21
2023-05-09T13:01:52.012Z,23.21
2023-05-09T13:04:20.322Z,23.31
2023-05-09T13:06:51.309Z,23.39
2023-05-09T13:09:19.456Z,23.32
2023-05-09T13:11:46.417Z,23.22
2023-05-09T13:14:13.226Z,23.23
2023-05-09T13:16:39.983Z,23.28
2023-05-09T13:19:06.709Z,23.32
2023-05-09T13:21:33.558Z,23.07
2023-05-09T13:24:00.672Z,22.90
2023-05-09T13:26:28.538Z,22.82
2023-05-09T13:28:55.348Z,22.64
2023-05-09T13:31:22.034Z,22.78
2023-05-09T13:33:50.906Z,22.81
2023-05-09T13:36:21.400Z,22.19
2023-05-09T13:38:47.902Z,22.20
2023-05-09T13:41:14.464Z,22.15
2023-05-09T13:43:44.353Z,22.11
2023-05-09T13:46:10.810Z,22.37
2023-05-09T13:48:37.260Z,22.73
2023-05-09T13:51:03.861Z,22.98
2023-05-09T13:53:32.665Z,22.76
2023-05-09T13:55:59.381Z,22.94
2023-05-09T13:58:25.820Z,23.18
2023-05-09T14:00:53.722Z,22.86
2023-05-09T14:03:20.444Z,22.55
2023-05-09T14:05:46.913Z,22.45
2023-05-09T14:08:13.426Z,22.52
2023-05-09T14:10:39.927Z,22.41
2023-05-09T14:13:06.423Z,22.41
2023-05-09T14:15:32.989Z,22.58
2023-05-09T14:18:00.862Z,22.67
2023-05-09T14:20:27.442Z,22.67
2023-05-09T14:22:53.831Z,22.62
2023-05-09T14:25:20.251Z,22.27
2023-05-09T14:27:46.698Z,22.01
2023-05-09T14:30:13.903Z,22.18
2023-05-09T14:32:40.523Z,22.29
2023-05-09T14:35:11.168Z,22.21
2023-05-09T14:37:37.605Z,22.12
2023-05-09T14:40:04.649Z,22.14
2023-05-09T14:42:31.200Z,22.31
2023-05-09T14:44:58.018Z,22.42
2023-05-09T14:47:24.498Z,22.53
2023-05-09T14:49:50.921Z,22.22
2023-05-09T14:52:18.669Z,22.17
2023-05-09T14:54:45.114Z,21.99
2023-05-09T14:57:11.572Z,21.88
2023-05-09T14:59:37.971Z,21.67
2023-05-09T15:02:04.421Z,21.74
2023-05-09T15:04:31.428Z,21.84
2023-05-09T15:06:58.144Z,21.87
2023-05-09T15:09:25.928Z,21.86
2023-05-09T15:11:52.670Z,21.61
2023-05-09T15:14:19.093Z,21.69
2023-05-09T15:16:45.747Z,21.68
2023-05-09T15:19:12.328Z,21.88
2023-05-09T15:21:38.842Z,21.91
2023-05-09T15:24:06.006Z,22.09
2023-05-09T15:26:33.731Z,21.83
2023-05-09T15:29:00.151Z,21.69
2023-05-09T15:31:29.191Z,21.71
2023-05-09T15:33:55.580Z,21.76
2023-05-09T15:36:22.049Z,21.70
2023-05-09T15:38:48.490Z,21.72
2023-05-09T15:41:15.101Z,21.81
2023-05-09T15:43:42.963Z,21.54
2023-05-09T15:46:09.410Z,21.58
2023-05-09T15:48:35.955Z,21.55
2023-05-09T15:51:02.412Z,21.55
2023-05-09T15:53:29.110Z,21.46
2023-05-09T15:55:55.689Z,21.60
2023-05-09T15:58:22.369Z,21.46
2023-05-09T16:00:50.189Z,20.99
2023-05-09T16:03:36.852Z,21.17
2023-05-09T16:06:20.251Z,21.13
2023-05-09T16:08:46.633Z,21.06
2023-05-09T16:11:13.179Z,20.98
2023-05-09T16:13:39.646Z,20.85
2023-05-09T16:16:07.767Z,20.65
2023-05-09T16:18:34.262Z,20.57
2023-05-09T16:21:00.697Z,20.42
2023-05-09T16:23:27.175Z,20.36
2023-05-09T16:25:53.615Z,20.28
2023-05-09T16:28:20.009Z,20.28
2023-05-09T16:30:46.467Z,20.35
2023-05-09T16:33:14.202Z,20.21
2023-05-09T16:35:40.732Z,20.01
2023-05-09T16:38:07.187Z,19.88
2023-05-09T16:40:33.560Z,19.93
2023-05-09T16:43:00.002Z,19.90
2023-05-09T16:45:26.421Z,19.78
2023-05-09T16:47:55.775Z,19.57
2023-05-09T16:50:23.809Z,19.53
2023-05-09T16:52:50.396Z,19.55
2023-05-09T16:55:17.121Z,19.55
2023-05-09T16:57:43.587Z,19.58
2023-05-09T17:00:10.856Z,19.50
2023-05-09T17:02:37.487Z,19.36
2023-05-09T17:05:04.581Z,19.32
2023-05-09T17:07:32.352Z,19.13
2023-05-09T17:09:58.847Z,19.02
2023-05-09T17:12:25.336Z,18.88
2023-05-09T17:14:51.770Z,18.70
2023-05-09T17:17:18.202Z,18.64
2023-05-09T17:19:44.757Z,18.53
2023-05-09T17:22:11.963Z,18.45
2023-05-09T17:24:40.048Z,18.39
2023-05-09T17:27:08.394Z,18.29
2023-05-09T17:29:35.403Z,18.27
2023-05-09T17:32:02.292Z,18.08
2023-05-09T17:34:28.962Z,18.11
2023-05-09T17:36:55.791Z,18.01
2023-05-09T17:39:22.206Z,17.93
2023-05-09T17:41:50.059Z,17.88
2023-05-09T17:44:16.735Z,17.77
2023-05-09T17:46:43.481Z,17.58
2023-05-09T17:49:10.065Z,17.58
2023-05-09T17:51:36.740Z,17.53
2023-05-09T17:54:03.629Z,17.46
2023-05-09T17:56:30.119Z,17.39
2023-05-09T17:58:59.564Z,17.35
2023-05-09T18:01:27.819Z,17.31
2023-05-09T18:03:56.840Z,17.25
2023-05-09T18:06:23.546Z,17.20
2023-05-09T18:08:50.197Z,17.13
2023-05-09T18:11:16.813Z,17.09
2023-05-09T18:13:43.464Z,16.97
2023-05-09T18:16:12.703Z,16.94
2023-05-09T18:18:39.258Z,16.91
2023-05-09T18:21:05.799Z,16.82
2023-05-09T18:23:32.429Z,16.72
2023-05-09T18:26:01.029Z,16.73
2023-05-09T18:28:27.710Z,16.66
2023-05-09T18:30:58.853Z,16.57
2023-05-09T18:33:28.141Z,16.56
2023-05-09T18:36:00.207Z,16.50
2023-05-09T18:38:27.038Z,16.37
2023-05-09T18:40:57.878Z,16.31
2023-05-09T18:43:24.976Z,16.23
2023-05-09T18:46:02.951Z,16.27
2023-05-09T18:48:33.060Z,16.11
2023-05-09T18:50:59.819Z,16.07
2023-05-09T18:53:38.071Z,16.10
2023-05-09T18:56:05.304Z,16.06
2023-05-09T18:58:39.556Z,15.92
2023-05-09T19:05:04.106Z,15.90
2023-05-09T19:56:12.818Z,14.59
2023-05-09T20:02:32.662Z,14.59
2023-05-09T20:05:12.525Z,14.57
2023-05-09T20:14:15.780Z,14.45
2023-05-09T20:17:09.003Z,14.43
2023-05-09T20:20:03.560Z,14.38
2023-05-09T20:22:51.184Z,14.31
2023-05-09T20:28:21.393Z,14.23
2023-05-09T20:34:25.138Z,14.10
2023-05-09T20:37:11.673Z,14.11
2023-05-09T20:39:42.412Z,14.03
2023-05-09T20:42:14.116Z,13.97
2023-05-09T20:44:51.609Z,14.02
2023-05-09T20:47:35.285Z,13.95
2023-05-09T20:50:04.259Z,13.87
2023-05-09T20:55:34.581Z,13.73
2023-05-09T20:58:29.899Z,13.75
2023-05-09T21:15:15.406Z,13.53
2023-05-09T21:18:37.169Z,13.45
2023-05-09T21:21:39.854Z,13.41
2023-05-09T21:25:04.466Z,13.28
2023-05-09T21:27:54.008Z,13.24
2023-05-09T21:37:04.726Z,13.12
2023-05-09T21:40:00.216Z,13.11
2023-05-09T21:59:22.277Z,12.68
2023-05-09T22:02:10.683Z,12.65
2023-05-09T22:04:47.199Z,12.57
2023-05-09T22:07:28.039Z,12.53
2023-05-09T22:10:03.084Z,12.40
2023-05-09T22:13:52.148Z,12.48
2023-05-09T22:23:41.081Z,12.24
2023-05-09T22:36:15.948Z,11.94
2023-05-09T23:03:06.473Z,11.65
2023-05-09T23:10:09.242Z,11.69
2023-05-09T23:16:13.224Z,11.53
2023-05-09T23:24:57.377Z,11.54
2023-05-09T23:27:23.809Z,11.48
2023-05-09T23:29:50.293Z,11.48
2023-05-09T23:32:16.736Z,11.47
2023-05-09T23:34:43.130Z,11.41
2023-05-09T23:37:09.530Z,11.40
2023-05-09T23:39:36.003Z,11.35
2023-05-09T23:42:04.055Z,11.34
2023-05-09T23:44:30.471Z,11.31
2023-05-09T23:46:56.993Z,11.26
2023-05-09T23:49:23.538Z,11.22
2023-05-09T23:51:49.939Z,11.18
2023-05-09T23:54:16.413Z,11.15
2023-05-09T23:56:42.842Z,11.13
2023-05-09T23:59:10.603Z,11.09
